メインページ
METAR-TAF:

METAR-TAF

空港 :

ダブリン空港

ダブリン, アイルランド

緯度: 53-26N, 経度: 006-15W, 海抜: 68m

現時点の気象観測

当レポートは21分前の12:00(UTC)に作成
北西の風 12kt
気温 12°C
湿度 88%
気圧 1028 hPa
視程10km以上
高度800ftの雲はほとんどない
高度1500ftの雲は散在している
高度2200ftの千切れ雲あり

METAR: EIDW 211200Z 31012KT 9999 FEW008 SCT015 BKN022 12/10 Q1028 TEMPO 5000 BKN010

時間: 13:21 (12:21 UTC)

予報

当レポートは1時間21分前の11:00(UTC)に作成
予報は21日の 12時(UTC)から 22日の 12時(UTC)まで有効
北西の風 15kt
視程10km以上
高度1200ftの雲はほとんどない
高度2800ftの千切れ雲あり
21日の 12時(UTC)から 21日の 16時(UTC)まで一時的に
西/北西の風 16kt、最大27ktの突風を伴う
21日の 12時(UTC)から 21日の 13時(UTC)まで一時的に
視程: 6000m
高度1500ftの千切れ雲あり
小雨
21日の 18時(UTC)から 21日の 21時(UTC)まで徐々に
北西の風 8kt
21日の 21時(UTC)から 21日の 24時(UTC)まで徐々に
西の風 8kt

TAF: EIDW 211100Z 2112/2212 31015KT 9999 FEW012 BKN028 TEMPO 2112/2116 30016G27KT TEMPO 2112/2113 6000 -RA BKN015 BECMG 2118/2121 31008KT BECMG 2121/2124 28008KT

4,000以上の空港の気象観測と天気予報(METAR報とTAF報)

利用可能な観測所は地図上に黄色い丸と赤い丸で示す。

丸の上にカーソルを重ねると観測所名を参照できる。

次にクリックすると気象観測と天気予報を参照できる。

マップの切り替え:黒色「×」印の緑ボタンをクリックして拡大、「-」印の緑ボタンをクリックして縮小、緑色の三角印をクリックして隣りの地図に切り替え


METAR-TAF: